Flight Track Log - Related Links

Times and Time Zones

All times are in EDT time to prevent confusion due to time zone crossing. See the N8223C flight status page for this flight to view local times or setup timezone preferences in your user account.

Time Position Orientation Groundspeed Altitude Reporting Facility
EDT Latitude Longitude Course Direction KTS MPH feet Rate Location/Type
Sun 05:18:15 PM 43.5047 -86.3417 180° South 106 122 3,500  Level Chicago Center
Sun 05:19:17 PM 43.4744 -86.3358 172° South 109 125 3,900 387 Climbing Chicago Center
Sun 05:20:19 PM 43.4447 -86.3328 176° South 108 124 4,300 387 Climbing Chicago Center
Sun 05:21:21 PM 43.4144 -86.3292 175° South 109 125 4,700 387 Climbing Chicago Center
Sun 05:22:00 PM 43.4241 -86.3152 180° South  Level Estimated
Sun 05:22:23 PM 43.3833 -86.3275 178° South 112 129 5,100  Level Chicago Center
Sun 05:23:00 PM 43.3878 -86.3152 180° South  Level FlightAware
Sun 05:23:25 PM 43.3464 -86.3256 178° South 110 127 5,500  Level Chicago Center
Sun 05:24:27 PM 43.3144 -86.3242 178° South 114 131 5,900 194 Climbing Chicago Center
Sun 05:25:29 PM 43.2797 -86.3247 181° South 123 142 5,900  Level Chicago Center
Sun 05:26:31 PM 43.2422 -86.3244 180° South 134 154 5,900  Level Chicago Center
Sun 05:27:33 PM 43.2050 -86.3231 178° South 134 154 5,900  Level Chicago Center
Sun 05:28:35 PM 43.1603 -86.3225 179° South 134 154 5,900 48 Level Chicago Center
Sun 05:29:37 PM 43.1236 -86.3236 181° South 133 153 6,000  Climbing Chicago Center
Sun 05:30:39 PM 43.0867 -86.3242 181° South 132 152 5,900 -48 Descending Chicago Center
Sun 05:31:41 PM 43.0497 -86.3253 181° South 134 154 5,900  Level Chicago Center
Sun 05:32:43 PM 43.0122 -86.3267 182° South 135 155 5,900  Level Chicago Center
Sun 05:33:45 PM 42.9747 -86.3256 179° South 135 155 5,900  Level Chicago Center
Sun 05:34:47 PM 42.9300 -86.3239 178° South 135 155 5,900  Level Chicago Center
Sun 05:35:49 PM 42.8922 -86.3239 180° South 136 157 5,900  Level Chicago Center
Sun 05:36:51 PM 42.8542 -86.3231 179° South 138 159 5,900 48 Level Chicago Center
Sun 05:37:53 PM 42.8169 -86.3208 177° South 136 157 6,000 97 Climbing Chicago Center
Sun 05:38:55 PM 42.7786 -86.3211 180° South 138 159 6,100 48 Climbing Chicago Center
Sun 05:39:58 PM 42.7342 -86.3217 181° South 134 154 6,100  Level Chicago Center
Sun 05:41:00 PM 42.6964 -86.3197 178° South 136 157 6,100 -48 Level Chicago Center
Sun 05:42:00 PM 42.6601 -86.3193 180° South  Level FlightAware
Sun 05:42:02 PM 42.6569 -86.3208 180° South 140 161 6,000  Level Chicago Center
Sun 05:43:04 PM 42.6194 -86.3189 178° South 138 159 6,100 48 Climbing Chicago Center
Sun 05:44:06 PM 42.5814 -86.3194 181° South 137 158 6,100 -48 Level Chicago Center
Sun 05:45:08 PM 42.5353 -86.3183 179° South 138 159 6,000 -48 Descending Chicago Center
Sun 05:46:10 PM 42.4972 -86.3189 181° South 137 158 6,000  Level Chicago Center
Sun 05:47:12 PM 42.4592 -86.3186 180° South 137 158 6,000  Level Chicago Center
Sun 05:48:14 PM 42.4217 -86.3197 181° South 137 158 6,000  Level Chicago Center
Sun 05:49:16 PM 42.3842 -86.3203 181° South 135 155 6,000 -48 Level Chicago Center
Sun 05:50:18 PM 42.3458 -86.3217 182° South 137 158 5,900  Descending Chicago Center
Sun 05:51:20 PM 42.3008 -86.3214 180° South 136 157 6,000 48 Climbing Chicago Center
Sun 05:52:23 PM 42.2697 -86.3222 181° South 131 151 6,000  Level Chicago Center
Sun 05:53:25 PM 42.2253 -86.3233 181° South 132 152 6,000  Level Chicago Center
Sun 05:54:27 PM 42.1875 -86.3225 179° South 135 155 6,000  Level Chicago Center
Sun 05:55:29 PM 42.1506 -86.3219 179° South 135 155 6,000  Level Chicago Center
Sun 05:56:31 PM 42.1136 -86.3219 180° South 133 153 6,000  Level Chicago Center
Sun 05:57:33 PM 42.0758 -86.3211 179° South 135 155 6,000  Level Chicago Center
Sun 05:58:35 PM 42.0308 -86.3228 182° South 135 155 6,000 -48 Level Chicago Center
Sun 05:59:38 PM 41.9925 -86.3217 179° South 138 159 5,900 -48 Descending Chicago Center
Sun 06:00:40 PM 41.9556 -86.3217 180° South 135 155 5,900 48 Level Chicago Center
Sun 06:01:42 PM 41.9172 -86.3225 181° South 137 158 6,000 48 Climbing Chicago Center
Sun 06:02:44 PM 41.8803 -86.3156 172° South 134 154 6,000  Level Chicago Center
Sun 06:03:46 PM 41.8419 -86.3111 175° South 137 158 6,000  Level Chicago Center
Sun 06:04:48 PM 41.7964 -86.3053 175° South 137 158 6,000  Level Chicago Center
Sun 06:05:50 PM 41.7589 -86.2997 174° South 137 158 6,000  Level Chicago Center
Sun 06:06:52 PM 41.7192 -86.2964 176° South 142 163 6,000 -48 Level Chicago Center
Sun 06:07:54 PM 41.6797 -86.2922 175° South 144 166 5,900 -290 Descending Chicago Center
Sun 06:08:56 PM 41.6378 -86.2875 175° South 150 173 5,400 -432 Descending Chicago Center
Sun 06:09:59 PM 41.5886 -86.2817 175° South 149 171 5,000 -240 Descending Chicago Center
Sun 06:11:01 PM 41.5486 -86.2764 174° South 146 168 4,900  Descending Chicago Center
Sun 06:12:03 PM 41.5108 -86.2711 174° South 141 162 5,000 48 Climbing Chicago Center
Sun 06:13:05 PM 41.4739 -86.2667 175° South 137 158 5,000  Level Chicago Center
Sun 06:14:07 PM 41.4369 -86.2633 176° South 134 154 5,000  Level Chicago Center
Sun 06:15:09 PM 41.3994 -86.2583 174° South 135 155 5,000  Level Chicago Center
Sun 06:16:11 PM 41.3564 -86.2528 174° South 132 152 5,000  Level Chicago Center
Sun 06:17:13 PM 41.3169 -86.2475 174° South 138 159 5,000  Level Chicago Center
Sun 06:18:15 PM 41.2794 -86.2447 177° South 137 158 5,000 -51 Level Chicago Center
Sun 06:19:11 PM 41.2431 -86.2431 178° South 134 154 4,900 -52 Descending Chicago Center
Sun 06:20:11 PM 41.2058 -86.2381 174° South 133 153 4,900 -50 Level Chicago Center
Sun 06:21:12 PM 41.1703 -86.2361 178° South 133 153 4,800 -248 Descending Chicago Center
Sun 06:22:12 PM 41.1306 -86.2422 187° South 136 157 4,400 -417 Descending Chicago Center
Sun 06:23:07 PM 41.0969 -86.2483 188° South 136 157 4,000 -259 Descending Chicago Center
Sun 06:24:08 PM 41.0592 -86.2572 190° South 131 151 3,900  Descending Chicago Center
Sun 06:25:08 PM 41.0278 -86.2556 178° South 122 140 4,000 50 Climbing Chicago Center
Sun 06:26:09 PM 40.9906 -86.2506 174° South 124 143 4,000  Level Chicago Center
Sun 06:27:09 PM 40.9553 -86.2458 174° South 125 144 4,000  Level Chicago Center
Sun 06:28:10 PM 40.9219 -86.2414 174° South 125 144 4,000  Level Chicago Center
Sun 06:29:11 PM 40.8847 -86.2336 171° South 125 144 4,000  Level Chicago Center
Sun 06:30:11 PM 40.8514 -86.2292 174° South 125 144 4,000  Level Chicago Center
Sun 06:31:12 PM 40.8161 -86.2242 174° South 126 145 4,000  Level Chicago Center
Sun 06:31:42 PM 40.8025 -86.2200 167° South 126 145 4,000  Level Chicago Center
Sun 06:32:12 PM 40.7808 -86.2194 179° South 126 145 4,000  Level Chicago Center
Sun 06:32:45 PM 40.7614 -86.2169 174° South 124 143 4,000  Level Chicago Center
Sun 06:33:47 PM 40.7275 -86.2122 174° South 124 143 4,000 -48 Level Chicago Center
Sun 06:34:49 PM 40.6917 -86.2072 174° South 127 146 3,900 -48 Descending Chicago Center
Sun 06:35:51 PM 40.6589 -86.2017 173° South 127 146 3,900 48 Level Chicago Center
Sun 06:36:53 PM 40.6169 -86.1947 173° South 127 146 4,000  Climbing Chicago Center
Sun 06:37:55 PM 40.5828 -86.1906 175° South 124 143 3,900  Descending Chicago Center
Sun 06:38:57 PM 40.5483 -86.1875 176° South 125 144 4,000 48 Climbing Chicago Center
Sun 06:39:59 PM 40.5144 -86.1839 175° South 123 142 4,000  Level Chicago Center
Sun 06:41:01 PM 40.4794 -86.1806 176° South 124 143 4,000 48 Level Chicago Center
Sun 06:42:03 PM 40.4453 -86.1761 174° South 124 143 4,100  Climbing Chicago Center
Sun 06:43:06 PM 40.4039 -86.1719 176° South 124 143 4,000 -48 Descending Chicago Center
Sun 06:44:07 PM 40.3689 -86.1683 176° South 126 145 4,000 -48 Level Chicago Center
Sun 06:45:10 PM 40.3331 -86.1653 176° South 127 146 3,900 -96 Descending Chicago Center
Sun 06:46:12 PM 40.2983 -86.1608 174° South 127 146 3,800 -194 Descending Chicago Center
Sun 06:47:14 PM 40.2622 -86.1586 177° South 128 147 3,500 -145 Descending Chicago Center
Sun 06:48:16 PM 40.2208 -86.1556 177° South 126 145 3,500  Level Chicago Center
Sun 06:49:18 PM 40.1886 -86.1517 175° South 122 140 3,500  Level Chicago Center
Sun 06:50:20 PM 40.1558 -86.1481 175° South 119 137 3,500  Level Chicago Center

Login

Don't have an account? Register now (free) for customized features, flight alerts, and more!